sensor_id;sensor_type;location;lat;lon;timestamp;temperature;humidity
36924;DHT22;22841;50.252;18.688;2023-05-29T00:00:22;11.70;99.90
36924;DHT22;22841;50.252;18.688;2023-05-29T00:02:50;11.70;99.90
36924;DHT22;22841;50.252;18.688;2023-05-29T00:05:17;11.70;99.90
36924;DHT22;22841;50.252;18.688;2023-05-29T00:07:43;11.70;99.90
36924;DHT22;22841;50.252;18.688;2023-05-29T00:10:10;11.70;99.90
36924;DHT22;22841;50.252;18.688;2023-05-29T00:12:38;11.60;99.90
36924;DHT22;22841;50.252;18.688;2023-05-29T00:15:05;11.60;99.90
36924;DHT22;22841;50.252;18.688;2023-05-29T00:17:32;11.60;99.90
36924;DHT22;22841;50.252;18.688;2023-05-29T00:19:58;11.60;99.90
36924;DHT22;22841;50.252;18.688;2023-05-29T00:22:25;11.50;99.90
36924;DHT22;22841;50.252;18.688;2023-05-29T00:24:53;11.50;99.90
36924;DHT22;22841;50.252;18.688;2023-05-29T00:27:20;11.40;99.90
36924;DHT22;22841;50.252;18.688;2023-05-29T00:29:46;11.40;99.90
36924;DHT22;22841;50.252;18.688;2023-05-29T00:32:12;11.40;99.90
36924;DHT22;22841;50.252;18.688;2023-05-29T00:34:38;11.30;99.90
36924;DHT22;22841;50.252;18.688;2023-05-29T00:37:05;11.30;99.90
36924;DHT22;22841;50.252;18.688;2023-05-29T00:39:31;11.30;99.90
36924;DHT22;22841;50.252;18.688;2023-05-29T00:41:57;11.20;99.90
36924;DHT22;22841;50.252;18.688;2023-05-29T00:44:23;11.20;99.90
36924;DHT22;22841;50.252;18.688;2023-05-29T00:46:52;11.30;99.90
36924;DHT22;22841;50.252;18.688;2023-05-29T00:49:22;11.20;99.90
36924;DHT22;22841;50.252;18.688;2023-05-29T00:51:51;11.10;99.90
36924;DHT22;22841;50.252;18.688;2023-05-29T00:54:22;11.20;99.90
36924;DHT22;22841;50.252;18.688;2023-05-29T00:56:49;11.10;99.90
36924;DHT22;22841;50.252;18.688;2023-05-29T00:59:15;11.10;99.90
36924;DHT22;22841;50.252;18.688;2023-05-29T01:01:42;11.10;99.90
36924;DHT22;22841;50.252;18.688;2023-05-29T01:04:09;11.00;99.90
36924;DHT22;22841;50.252;18.688;2023-05-29T01:06:39;11.00;99.90
36924;DHT22;22841;50.252;18.688;2023-05-29T01:09:05;11.00;99.90
36924;DHT22;22841;50.252;18.688;2023-05-29T01:11:42;11.00;99.90
36924;DHT22;22841;50.252;18.688;2023-05-29T01:14:17;10.90;99.90
36924;DHT22;22841;50.252;18.688;2023-05-29T01:16:54;10.90;99.90
36924;DHT22;22841;50.252;18.688;2023-05-29T01:24:55;10.80;99.90
36924;DHT22;22841;50.252;18.688;2023-05-29T01:27:25;10.80;99.90
36924;DHT22;22841;50.252;18.688;2023-05-29T01:29:56;10.80;99.90
36924;DHT22;22841;50.252;18.688;2023-05-29T01:32:24;10.80;99.90
36924;DHT22;22841;50.252;18.688;2023-05-29T01:34:51;10.80;99.90
36924;DHT22;22841;50.252;18.688;2023-05-29T01:37:17;10.70;99.90
36924;DHT22;22841;50.252;18.688;2023-05-29T01:39:43;10.70;99.90
36924;DHT22;22841;50.252;18.688;2023-05-29T01:42:10;10.70;99.90
36924;DHT22;22841;50.252;18.688;2023-05-29T01:44:38;10.60;99.90
36924;DHT22;22841;50.252;18.688;2023-05-29T01:47:04;10.70;99.90
36924;DHT22;22841;50.252;18.688;2023-05-29T01:49:31;10.60;99.90
36924;DHT22;22841;50.252;18.688;2023-05-29T01:51:58;10.60;99.90
36924;DHT22;22841;50.252;18.688;2023-05-29T01:54:24;10.50;99.90
36924;DHT22;22841;50.252;18.688;2023-05-29T01:56:51;10.50;99.90
36924;DHT22;22841;50.252;18.688;2023-05-29T01:59:17;10.50;99.90
36924;DHT22;22841;50.252;18.688;2023-05-29T02:01:44;10.50;99.90
36924;DHT22;22841;50.252;18.688;2023-05-29T02:04:10;10.50;99.90
36924;DHT22;22841;50.252;18.688;2023-05-29T02:06:36;10.50;99.90
36924;DHT22;22841;50.252;18.688;2023-05-29T02:09:02;10.50;99.90
36924;DHT22;22841;50.252;18.688;2023-05-29T02:11:28;10.40;99.90
36924;DHT22;22841;50.252;18.688;2023-05-29T02:13:55;10.40;99.90
36924;DHT22;22841;50.252;18.688;2023-05-29T02:16:21;10.40;99.90
36924;DHT22;22841;50.252;18.688;2023-05-29T02:18:47;10.40;99.90
36924;DHT22;22841;50.252;18.688;2023-05-29T02:21:13;10.40;99.90
36924;DHT22;22841;50.252;18.688;2023-05-29T02:23:39;10.40;99.90
36924;DHT22;22841;50.252;18.688;2023-05-29T02:26:05;10.40;99.90
36924;DHT22;22841;50.252;18.688;2023-05-29T02:28:31;10.40;99.90
36924;DHT22;22841;50.252;18.688;2023-05-29T02:30:58;10.40;99.90
36924;DHT22;22841;50.252;18.688;2023-05-29T02:33:24;10.30;99.90
36924;DHT22;22841;50.252;18.688;2023-05-29T02:35:50;10.30;99.90
36924;DHT22;22841;50.252;18.688;2023-05-29T02:38:16;10.30;99.90
36924;DHT22;22841;50.252;18.688;2023-05-29T02:40:42;10.30;99.90
36924;DHT22;22841;50.252;18.688;2023-05-29T02:43:13;10.20;99.90
36924;DHT22;22841;50.252;18.688;2023-05-29T02:45:39;10.20;1.00
36924;DHT22;22841;50.252;18.688;2023-05-29T02:48:05;10.20;1.00
36924;DHT22;22841;50.252;18.688;2023-05-29T02:50:32;10.10;1.00
36924;DHT22;22841;50.252;18.688;2023-05-29T02:52:58;10.10;1.00
36924;DHT22;22841;50.252;18.688;2023-05-29T02:55:24;10.10;1.00
36924;DHT22;22841;50.252;18.688;2023-05-29T02:57:50;10.10;1.00
36924;DHT22;22841;50.252;18.688;2023-05-29T03:00:18;10.10;1.00
36924;DHT22;22841;50.252;18.688;2023-05-29T03:02:44;10.00;1.00
36924;DHT22;22841;50.252;18.688;2023-05-29T03:05:11;10.00;1.00
36924;DHT22;22841;50.252;18.688;2023-05-29T03:07:37;9.90;1.00
36924;DHT22;22841;50.252;18.688;2023-05-29T03:10:03;9.90;1.00
36924;DHT22;22841;50.252;18.688;2023-05-29T03:12:29;9.90;1.00
36924;DHT22;22841;50.252;18.688;2023-05-29T03:14:55;10.00;1.00
36924;DHT22;22841;50.252;18.688;2023-05-29T03:17:22;10.00;1.00
36924;DHT22;22841;50.252;18.688;2023-05-29T03:19:48;10.10;1.00
36924;DHT22;22841;50.252;18.688;2023-05-29T03:22:14;10.00;1.00
36924;DHT22;22841;50.252;18.688;2023-05-29T03:24:40;10.00;1.00
36924;DHT22;22841;50.252;18.688;2023-05-29T03:27:06;10.00;1.00
36924;DHT22;22841;50.252;18.688;2023-05-29T03:29:32;10.00;1.00
36924;DHT22;22841;50.252;18.688;2023-05-29T03:31:58;10.00;1.00
36924;DHT22;22841;50.252;18.688;2023-05-29T03:34:25;10.00;1.00
36924;DHT22;22841;50.252;18.688;2023-05-29T03:36:51;10.00;1.00
36924;DHT22;22841;50.252;18.688;2023-05-29T03:39:17;10.00;1.00
36924;DHT22;22841;50.252;18.688;2023-05-29T03:41:43;10.00;1.00
36924;DHT22;22841;50.252;18.688;2023-05-29T03:44:09;10.00;1.00
36924;DHT22;22841;50.252;18.688;2023-05-29T03:46:35;10.00;1.00
36924;DHT22;22841;50.252;18.688;2023-05-29T03:49:01;10.00;1.00
36924;DHT22;22841;50.252;18.688;2023-05-29T03:51:27;10.10;1.00
36924;DHT22;22841;50.252;18.688;2023-05-29T03:53:53;10.10;1.00
36924;DHT22;22841;50.252;18.688;2023-05-29T03:56:20;10.10;1.00
36924;DHT22;22841;50.252;18.688;2023-05-29T03:58:46;10.20;1.00
36924;DHT22;22841;50.252;18.688;2023-05-29T04:01:12;10.10;1.00
36924;DHT22;22841;50.252;18.688;2023-05-29T04:03:38;10.10;1.00
36924;DHT22;22841;50.252;18.688;2023-05-29T04:06:04;10.10;1.00
36924;DHT22;22841;50.252;18.688;2023-05-29T04:08:30;10.10;1.00
36924;DHT22;22841;50.252;18.688;2023-05-29T04:10:57;10.20;1.00
36924;DHT22;22841;50.252;18.688;2023-05-29T04:13:23;10.20;1.00
36924;DHT22;22841;50.252;18.688;2023-05-29T04:15:49;10.30;1.00
36924;DHT22;22841;50.252;18.688;2023-05-29T04:18:19;10.30;1.00
36924;DHT22;22841;50.252;18.688;2023-05-29T04:20:45;10.30;1.00
36924;DHT22;22841;50.252;18.688;2023-05-29T04:23:13;10.30;1.00
36924;DHT22;22841;50.252;18.688;2023-05-29T04:25:39;10.40;1.00
36924;DHT22;22841;50.252;18.688;2023-05-29T04:28:06;10.50;1.00
36924;DHT22;22841;50.252;18.688;2023-05-29T04:30:32;10.50;1.00
36924;DHT22;22841;50.252;18.688;2023-05-29T04:32:59;10.50;1.00
36924;DHT22;22841;50.252;18.688;2023-05-29T04:35:25;10.50;1.00
36924;DHT22;22841;50.252;18.688;2023-05-29T04:37:54;10.60;1.00
36924;DHT22;22841;50.252;18.688;2023-05-29T04:40:22;10.60;1.00
36924;DHT22;22841;50.252;18.688;2023-05-29T04:42:48;10.70;1.00
36924;DHT22;22841;50.252;18.688;2023-05-29T04:45:15;10.70;1.00
36924;DHT22;22841;50.252;18.688;2023-05-29T04:47:42;10.80;1.00
36924;DHT22;22841;50.252;18.688;2023-05-29T04:50:12;10.80;1.00
36924;DHT22;22841;50.252;18.688;2023-05-29T04:52:38;10.90;1.00
36924;DHT22;22841;50.252;18.688;2023-05-29T04:55:07;11.00;1.00
36924;DHT22;22841;50.252;18.688;2023-05-29T04:57:34;11.00;1.00
36924;DHT22;22841;50.252;18.688;2023-05-29T05:00:00;11.10;1.00
36924;DHT22;22841;50.252;18.688;2023-05-29T05:02:26;11.10;1.00
36924;DHT22;22841;50.252;18.688;2023-05-29T05:04:52;11.20;1.00
36924;DHT22;22841;50.252;18.688;2023-05-29T05:07:18;11.20;1.00
36924;DHT22;22841;50.252;18.688;2023-05-29T05:09:44;11.30;1.00
36924;DHT22;22841;50.252;18.688;2023-05-29T05:12:11;11.40;1.00
36924;DHT22;22841;50.252;18.688;2023-05-29T05:14:37;11.40;1.00
36924;DHT22;22841;50.252;18.688;2023-05-29T05:17:03;11.50;1.00
36924;DHT22;22841;50.252;18.688;2023-05-29T05:19:29;11.60;1.00
36924;DHT22;22841;50.252;18.688;2023-05-29T05:21:56;11.70;1.00
36924;DHT22;22841;50.252;18.688;2023-05-29T05:24:22;11.80;1.00
36924;DHT22;22841;50.252;18.688;2023-05-29T05:26:48;11.90;1.00
36924;DHT22;22841;50.252;18.688;2023-05-29T05:29:14;11.90;1.00
36924;DHT22;22841;50.252;18.688;2023-05-29T05:31:40;12.00;1.00
36924;DHT22;22841;50.252;18.688;2023-05-29T05:34:06;12.10;1.00
36924;DHT22;22841;50.252;18.688;2023-05-29T05:36:32;12.20;1.00
36924;DHT22;22841;50.252;18.688;2023-05-29T05:38:58;12.20;1.00
36924;DHT22;22841;50.252;18.688;2023-05-29T05:41:24;12.30;1.00
36924;DHT22;22841;50.252;18.688;2023-05-29T05:43:51;12.40;1.00
36924;DHT22;22841;50.252;18.688;2023-05-29T05:46:17;12.40;1.00
36924;DHT22;22841;50.252;18.688;2023-05-29T05:48:43;12.60;1.00
36924;DHT22;22841;50.252;18.688;2023-05-29T05:51:09;12.60;1.00
36924;DHT22;22841;50.252;18.688;2023-05-29T05:53:37;12.70;99.90
36924;DHT22;22841;50.252;18.688;2023-05-29T05:56:03;12.80;99.90
36924;DHT22;22841;50.252;18.688;2023-05-29T05:58:29;12.90;99.90
36924;DHT22;22841;50.252;18.688;2023-05-29T06:00:55;13.10;99.90
36924;DHT22;22841;50.252;18.688;2023-05-29T06:03:23;13.20;99.90
36924;DHT22;22841;50.252;18.688;2023-05-29T06:05:49;13.20;99.90
36924;DHT22;22841;50.252;18.688;2023-05-29T06:08:16;13.40;99.90
36924;DHT22;22841;50.252;18.688;2023-05-29T06:10:42;13.50;99.90
36924;DHT22;22841;50.252;18.688;2023-05-29T06:13:09;13.50;99.90
36924;DHT22;22841;50.252;18.688;2023-05-29T06:15:35;13.60;99.90
36924;DHT22;22841;50.252;18.688;2023-05-29T06:18:02;13.70;99.90
36924;DHT22;22841;50.252;18.688;2023-05-29T06:20:28;13.80;99.90
36924;DHT22;22841;50.252;18.688;2023-05-29T06:22:55;13.90;99.90
36924;DHT22;22841;50.252;18.688;2023-05-29T06:25:21;14.00;99.90
36924;DHT22;22841;50.252;18.688;2023-05-29T06:27:47;14.10;99.90
36924;DHT22;22841;50.252;18.688;2023-05-29T06:30:14;14.20;99.90
36924;DHT22;22841;50.252;18.688;2023-05-29T06:32:41;14.20;99.90
36924;DHT22;22841;50.252;18.688;2023-05-29T06:35:07;14.40;99.90
36924;DHT22;22841;50.252;18.688;2023-05-29T06:37:33;14.50;99.90
36924;DHT22;22841;50.252;18.688;2023-05-29T06:39:59;14.60;99.90
36924;DHT22;22841;50.252;18.688;2023-05-29T06:42:25;14.70;99.90
36924;DHT22;22841;50.252;18.688;2023-05-29T06:44:51;14.70;99.90
36924;DHT22;22841;50.252;18.688;2023-05-29T06:47:18;14.90;99.90
36924;DHT22;22841;50.252;18.688;2023-05-29T06:49:44;15.00;99.90
36924;DHT22;22841;50.252;18.688;2023-05-29T06:52:10;15.10;99.90
36924;DHT22;22841;50.252;18.688;2023-05-29T06:54:36;15.30;21.10
36924;DHT22;22841;50.252;18.688;2023-05-29T06:57:02;15.40;99.90
36924;DHT22;22841;50.252;18.688;2023-05-29T06:59:28;15.50;99.90
36924;DHT22;22841;50.252;18.688;2023-05-29T07:01:54;15.60;1.00
36924;DHT22;22841;50.252;18.688;2023-05-29T07:04:20;15.70;1.00
36924;DHT22;22841;50.252;18.688;2023-05-29T07:06:46;15.80;1.00
36924;DHT22;22841;50.252;18.688;2023-05-29T07:09:12;16.00;99.90
36924;DHT22;22841;50.252;18.688;2023-05-29T07:11:38;16.10;1.00
36924;DHT22;22841;50.252;18.688;2023-05-29T07:14:05;16.20;99.90
36924;DHT22;22841;50.252;18.688;2023-05-29T07:16:32;16.30;99.90
36924;DHT22;22841;50.252;18.688;2023-05-29T07:18:58;16.50;99.90
36924;DHT22;22841;50.252;18.688;2023-05-29T07:21:24;16.60;99.90
36924;DHT22;22841;50.252;18.688;2023-05-29T07:23:50;16.70;99.90
36924;DHT22;22841;50.252;18.688;2023-05-29T07:26:16;16.90;99.90
36924;DHT22;22841;50.252;18.688;2023-05-29T07:28:43;17.00;99.90
36924;DHT22;22841;50.252;18.688;2023-05-29T07:31:09;17.10;92.80
36924;DHT22;22841;50.252;18.688;2023-05-29T07:33:35;17.20;1.00
36924;DHT22;22841;50.252;18.688;2023-05-29T07:36:01;17.20;1.00
36924;DHT22;22841;50.252;18.688;2023-05-29T07:38:27;17.20;99.90
36924;DHT22;22841;50.252;18.688;2023-05-29T07:40:53;17.30;1.00
36924;DHT22;22841;50.252;18.688;2023-05-29T07:43:19;17.40;19.50
36924;DHT22;22841;50.252;18.688;2023-05-29T07:45:45;17.50;1.00
36924;DHT22;22841;50.252;18.688;2023-05-29T07:48:11;17.70;99.90
36924;DHT22;22841;50.252;18.688;2023-05-29T07:50:38;17.90;99.90
36924;DHT22;22841;50.252;18.688;2023-05-29T07:53:04;17.90;99.90
36924;DHT22;22841;50.252;18.688;2023-05-29T07:55:30;17.90;1.00
36924;DHT22;22841;50.252;18.688;2023-05-29T07:57:56;17.90;99.90
36924;DHT22;22841;50.252;18.688;2023-05-29T08:00:22;18.00;99.90
36924;DHT22;22841;50.252;18.688;2023-05-29T08:02:49;18.10;1.00
36924;DHT22;22841;50.252;18.688;2023-05-29T08:05:15;18.40;1.00
36924;DHT22;22841;50.252;18.688;2023-05-29T08:07:41;18.50;1.00
36924;DHT22;22841;50.252;18.688;2023-05-29T08:10:09;18.50;99.90
36924;DHT22;22841;50.252;18.688;2023-05-29T08:12:35;18.70;35.90
36924;DHT22;22841;50.252;18.688;2023-05-29T08:15:02;18.90;99.90
36924;DHT22;22841;50.252;18.688;2023-05-29T08:17:29;19.00;99.90
36924;DHT22;22841;50.252;18.688;2023-05-29T08:19:55;19.10;99.90
36924;DHT22;22841;50.252;18.688;2023-05-29T08:22:28;19.30;99.90
36924;DHT22;22841;50.252;18.688;2023-05-29T08:24:54;19.30;99.90
36924;DHT22;22841;50.252;18.688;2023-05-29T08:27:21;19.40;99.90
36924;DHT22;22841;50.252;18.688;2023-05-29T08:29:47;19.50;99.90
36924;DHT22;22841;50.252;18.688;2023-05-29T08:32:13;19.60;55.80
36924;DHT22;22841;50.252;18.688;2023-05-29T08:34:39;19.60;46.30
36924;DHT22;22841;50.252;18.688;2023-05-29T08:37:07;19.60;99.90
36924;DHT22;22841;50.252;18.688;2023-05-29T08:39:33;19.70;99.90
36924;DHT22;22841;50.252;18.688;2023-05-29T08:42:04;19.70;62.20
36924;DHT22;22841;50.252;18.688;2023-05-29T08:44:33;19.70;90.00
36924;DHT22;22841;50.252;18.688;2023-05-29T08:47:02;19.80;99.90
36924;DHT22;22841;50.252;18.688;2023-05-29T08:49:42;19.80;99.90
36924;DHT22;22841;50.252;18.688;2023-05-29T08:52:21;19.80;96.40
36924;DHT22;22841;50.252;18.688;2023-05-29T08:54:48;19.90;97.20
36924;DHT22;22841;50.252;18.688;2023-05-29T08:57:14;20.10;95.70
36924;DHT22;22841;50.252;18.688;2023-05-29T08:59:44;20.20;46.80
36924;DHT22;22841;50.252;18.688;2023-05-29T09:02:11;20.20;99.90
36924;DHT22;22841;50.252;18.688;2023-05-29T09:04:38;20.30;68.90
36924;DHT22;22841;50.252;18.688;2023-05-29T09:07:05;20.20;70.80
36924;DHT22;22841;50.252;18.688;2023-05-29T09:09:34;20.20;43.20
36924;DHT22;22841;50.252;18.688;2023-05-29T09:12:01;20.20;99.90
36924;DHT22;22841;50.252;18.688;2023-05-29T09:14:33;20.30;92.00
36924;DHT22;22841;50.252;18.688;2023-05-29T09:17:06;20.30;57.80
36924;DHT22;22841;50.252;18.688;2023-05-29T09:19:33;20.40;99.40
36924;DHT22;22841;50.252;18.688;2023-05-29T09:22:06;20.60;28.20
36924;DHT22;22841;50.252;18.688;2023-05-29T09:24:34;20.60;36.60
36924;DHT22;22841;50.252;18.688;2023-05-29T09:27:01;20.70;55.50
36924;DHT22;22841;50.252;18.688;2023-05-29T09:29:38;20.80;76.70
36924;DHT22;22841;50.252;18.688;2023-05-29T09:34:38;20.80;1.00
36924;DHT22;22841;50.252;18.688;2023-05-29T09:37:07;20.70;36.80
36924;DHT22;22841;50.252;18.688;2023-05-29T09:42:13;20.60;1.00
36924;DHT22;22841;50.252;18.688;2023-05-29T09:44:44;20.80;7.30
36924;DHT22;22841;50.252;18.688;2023-05-29T09:47:19;20.80;43.10
36924;DHT22;22841;50.252;18.688;2023-05-29T09:49:45;20.80;1.00
36924;DHT22;22841;50.252;18.688;2023-05-29T09:52:21;20.80;39.70
36924;DHT22;22841;50.252;18.688;2023-05-29T09:54:48;20.90;1.00
36924;DHT22;22841;50.252;18.688;2023-05-29T09:57:17;20.90;1.00
36924;DHT22;22841;50.252;18.688;2023-05-29T09:59:43;20.90;1.00
36924;DHT22;22841;50.252;18.688;2023-05-29T10:02:11;20.80;1.00
36924;DHT22;22841;50.252;18.688;2023-05-29T10:04:39;20.80;27.30
36924;DHT22;22841;50.252;18.688;2023-05-29T10:07:15;20.80;21.40
36924;DHT22;22841;50.252;18.688;2023-05-29T10:09:47;20.90;90.50
36924;DHT22;22841;50.252;18.688;2023-05-29T10:12:20;20.90;6.10
36924;DHT22;22841;50.252;18.688;2023-05-29T10:14:49;20.90;12.40
36924;DHT22;22841;50.252;18.688;2023-05-29T10:17:18;20.90;29.90
36924;DHT22;22841;50.252;18.688;2023-05-29T10:19:50;20.90;16.40
36924;DHT22;22841;50.252;18.688;2023-05-29T10:22:20;20.90;14.40
36924;DHT22;22841;50.252;18.688;2023-05-29T10:24:48;20.90;81.40
36924;DHT22;22841;50.252;18.688;2023-05-29T10:27:16;20.90;12.90
36924;DHT22;22841;50.252;18.688;2023-05-29T10:35:14;20.50;1.00
36924;DHT22;22841;50.252;18.688;2023-05-29T10:37:49;20.50;2.90
36924;DHT22;22841;50.252;18.688;2023-05-29T10:40:26;20.70;1.00
36924;DHT22;22841;50.252;18.688;2023-05-29T10:42:53;20.70;1.00
36924;DHT22;22841;50.252;18.688;2023-05-29T10:48:42;20.90;45.30
36924;DHT22;22841;50.252;18.688;2023-05-29T10:50:47;20.90;4.30
36924;DHT22;22841;50.252;18.688;2023-05-29T10:53:17;20.90;1.00
36924;DHT22;22841;50.252;18.688;2023-05-29T10:55:45;21.00;25.50
36924;DHT22;22841;50.252;18.688;2023-05-29T10:58:22;21.00;38.60
36924;DHT22;22841;50.252;18.688;2023-05-29T11:00:52;21.00;1.00
36924;DHT22;22841;50.252;18.688;2023-05-29T11:03:25;21.00;8.40
36924;DHT22;22841;50.252;18.688;2023-05-29T11:06:04;21.10;13.00
36924;DHT22;22841;50.252;18.688;2023-05-29T11:08:55;21.00;1.00
36924;DHT22;22841;50.252;18.688;2023-05-29T11:13:55;21.00;1.00
36924;DHT22;22841;50.252;18.688;2023-05-29T11:18:52;21.00;58.50
36924;DHT22;22841;50.252;18.688;2023-05-29T11:24:26;21.10;27.00
36924;DHT22;22841;50.252;18.688;2023-05-29T11:26:53;21.10;99.00
36924;DHT22;22841;50.252;18.688;2023-05-29T11:29:26;21.30;22.80
36924;DHT22;22841;50.252;18.688;2023-05-29T11:32:01;21.40;1.00
36924;DHT22;22841;50.252;18.688;2023-05-29T11:34:30;21.30;4.60
36924;DHT22;22841;50.252;18.688;2023-05-29T11:36:58;21.40;1.00
36924;DHT22;22841;50.252;18.688;2023-05-29T11:39:25;21.50;1.00
36924;DHT22;22841;50.252;18.688;2023-05-29T11:41:52;21.60;90.30
36924;DHT22;22841;50.252;18.688;2023-05-29T11:44:24;21.60;53.00
36924;DHT22;22841;50.252;18.688;2023-05-29T11:47:06;21.70;1.00
36924;DHT22;22841;50.252;18.688;2023-05-29T11:49:34;21.80;1.00
36924;DHT22;22841;50.252;18.688;2023-05-29T11:54:33;22.20;1.00
36924;DHT22;22841;50.252;18.688;2023-05-29T11:57:00;22.40;1.00
36924;DHT22;22841;50.252;18.688;2023-05-29T11:59:34;22.70;1.00
36924;DHT22;22841;50.252;18.688;2023-05-29T12:02:03;23.10;1.00
36924;DHT22;22841;50.252;18.688;2023-05-29T12:04:29;23.60;1.00
36924;DHT22;22841;50.252;18.688;2023-05-29T12:06:55;23.50;1.00
36924;DHT22;22841;50.252;18.688;2023-05-29T12:09:29;23.40;1.00
36924;DHT22;22841;50.252;18.688;2023-05-29T12:12:05;23.10;1.00
36924;DHT22;22841;50.252;18.688;2023-05-29T12:14:33;23.00;1.00
36924;DHT22;22841;50.252;18.688;2023-05-29T12:16:59;22.80;1.00
36924;DHT22;22841;50.252;18.688;2023-05-29T12:19:25;22.80;1.00
36924;DHT22;22841;50.252;18.688;2023-05-29T12:21:51;22.60;1.00
36924;DHT22;22841;50.252;18.688;2023-05-29T12:24:19;22.60;1.00
36924;DHT22;22841;50.252;18.688;2023-05-29T12:26:45;22.60;1.00
36924;DHT22;22841;50.252;18.688;2023-05-29T12:29:13;23.00;1.00
36924;DHT22;22841;50.252;18.688;2023-05-29T12:31:39;23.70;1.00
36924;DHT22;22841;50.252;18.688;2023-05-29T12:34:11;24.60;1.00
36924;DHT22;22841;50.252;18.688;2023-05-29T12:36:42;25.00;1.00
36924;DHT22;22841;50.252;18.688;2023-05-29T12:39:09;25.60;1.00
36924;DHT22;22841;50.252;18.688;2023-05-29T12:41:36;26.30;1.00
36924;DHT22;22841;50.252;18.688;2023-05-29T12:44:04;26.70;1.00
36924;DHT22;22841;50.252;18.688;2023-05-29T12:46:39;27.00;1.00
36924;DHT22;22841;50.252;18.688;2023-05-29T12:49:18;26.90;1.00
36924;DHT22;22841;50.252;18.688;2023-05-29T12:51:46;27.10;1.00
36924;DHT22;22841;50.252;18.688;2023-05-29T12:54:14;27.90;1.00
36924;DHT22;22841;50.252;18.688;2023-05-29T12:56:41;28.10;1.00
36924;DHT22;22841;50.252;18.688;2023-05-29T12:59:08;28.10;1.00
36924;DHT22;22841;50.252;18.688;2023-05-29T13:01:38;27.70;1.00
36924;DHT22;22841;50.252;18.688;2023-05-29T13:04:05;27.20;1.00
36924;DHT22;22841;50.252;18.688;2023-05-29T13:06:36;26.30;1.00
36924;DHT22;22841;50.252;18.688;2023-05-29T13:09:03;25.90;99.90
36924;DHT22;22841;50.252;18.688;2023-05-29T13:11:31;25.40;1.00
36924;DHT22;22841;50.252;18.688;2023-05-29T13:13:57;25.20;1.00
36924;DHT22;22841;50.252;18.688;2023-05-29T13:16:23;24.80;1.00
36924;DHT22;22841;50.252;18.688;2023-05-29T13:18:49;24.60;1.00
36924;DHT22;22841;50.252;18.688;2023-05-29T13:21:16;24.30;1.00
36924;DHT22;22841;50.252;18.688;2023-05-29T13:23:42;24.20;1.00
36924;DHT22;22841;50.252;18.688;2023-05-29T13:26:08;23.90;1.00
36924;DHT22;22841;50.252;18.688;2023-05-29T13:28:34;23.70;1.00
36924;DHT22;22841;50.252;18.688;2023-05-29T13:31:00;23.50;1.00
36924;DHT22;22841;50.252;18.688;2023-05-29T13:33:26;23.50;1.00
36924;DHT22;22841;50.252;18.688;2023-05-29T13:35:52;23.30;1.00
36924;DHT22;22841;50.252;18.688;2023-05-29T13:38:18;23.30;1.00
36924;DHT22;22841;50.252;18.688;2023-05-29T13:40:44;23.30;1.00
36924;DHT22;22841;50.252;18.688;2023-05-29T13:43:10;23.20;1.00
36924;DHT22;22841;50.252;18.688;2023-05-29T13:45:36;23.20;1.00
36924;DHT22;22841;50.252;18.688;2023-05-29T13:48:04;23.20;1.00
36924;DHT22;22841;50.252;18.688;2023-05-29T13:50:30;23.20;1.00
36924;DHT22;22841;50.252;18.688;2023-05-29T13:52:56;23.10;1.00
36924;DHT22;22841;50.252;18.688;2023-05-29T13:55:22;23.00;1.00
36924;DHT22;22841;50.252;18.688;2023-05-29T13:57:48;23.10;1.00
36924;DHT22;22841;50.252;18.688;2023-05-29T14:00:14;22.90;1.00
36924;DHT22;22841;50.252;18.688;2023-05-29T14:02:41;22.80;1.00
36924;DHT22;22841;50.252;18.688;2023-05-29T14:05:07;22.80;1.00
36924;DHT22;22841;50.252;18.688;2023-05-29T14:07:33;22.70;1.00
36924;DHT22;22841;50.252;18.688;2023-05-29T14:10:00;22.60;1.00
36924;DHT22;22841;50.252;18.688;2023-05-29T14:12:26;22.80;1.00
36924;DHT22;22841;50.252;18.688;2023-05-29T14:14:52;22.80;1.00
36924;DHT22;22841;50.252;18.688;2023-05-29T14:17:18;22.80;1.00
36924;DHT22;22841;50.252;18.688;2023-05-29T14:19:44;22.90;1.00
36924;DHT22;22841;50.252;18.688;2023-05-29T14:22:13;22.80;1.00
36924;DHT22;22841;50.252;18.688;2023-05-29T14:24:40;22.80;1.00
36924;DHT22;22841;50.252;18.688;2023-05-29T14:27:06;22.80;1.00
36924;DHT22;22841;50.252;18.688;2023-05-29T14:29:33;22.70;1.00
36924;DHT22;22841;50.252;18.688;2023-05-29T14:31:59;22.60;1.00
36924;DHT22;22841;50.252;18.688;2023-05-29T14:34:25;22.60;1.00
36924;DHT22;22841;50.252;18.688;2023-05-29T14:36:51;22.80;1.00
36924;DHT22;22841;50.252;18.688;2023-05-29T14:39:17;22.80;1.00
36924;DHT22;22841;50.252;18.688;2023-05-29T14:41:43;22.90;1.00
36924;DHT22;22841;50.252;18.688;2023-05-29T14:44:09;22.90;1.00
36924;DHT22;22841;50.252;18.688;2023-05-29T14:46:37;22.90;1.00
36924;DHT22;22841;50.252;18.688;2023-05-29T14:49:03;22.90;1.00
36924;DHT22;22841;50.252;18.688;2023-05-29T14:51:29;22.90;1.00
36924;DHT22;22841;50.252;18.688;2023-05-29T14:53:55;22.90;1.00
36924;DHT22;22841;50.252;18.688;2023-05-29T14:56:22;22.90;1.00
36924;DHT22;22841;50.252;18.688;2023-05-29T14:58:48;22.90;1.00
36924;DHT22;22841;50.252;18.688;2023-05-29T15:01:15;22.90;1.00
36924;DHT22;22841;50.252;18.688;2023-05-29T15:03:41;22.90;1.00
36924;DHT22;22841;50.252;18.688;2023-05-29T15:06:09;22.90;1.00
36924;DHT22;22841;50.252;18.688;2023-05-29T15:08:36;22.80;1.00
36924;DHT22;22841;50.252;18.688;2023-05-29T15:11:02;22.80;1.00
36924;DHT22;22841;50.252;18.688;2023-05-29T15:13:31;22.80;1.00
36924;DHT22;22841;50.252;18.688;2023-05-29T15:15:57;22.80;1.00
36924;DHT22;22841;50.252;18.688;2023-05-29T15:18:29;22.70;1.00
36924;DHT22;22841;50.252;18.688;2023-05-29T15:20:55;22.80;1.00
36924;DHT22;22841;50.252;18.688;2023-05-29T15:23:22;22.80;1.00
36924;DHT22;22841;50.252;18.688;2023-05-29T15:25:52;22.80;1.00
36924;DHT22;22841;50.252;18.688;2023-05-29T15:28:19;22.90;1.00
36924;DHT22;22841;50.252;18.688;2023-05-29T15:30:45;22.80;1.00
36924;DHT22;22841;50.252;18.688;2023-05-29T15:33:12;22.80;1.00
36924;DHT22;22841;50.252;18.688;2023-05-29T15:35:38;22.80;1.00
36924;DHT22;22841;50.252;18.688;2023-05-29T15:38:04;22.80;1.00
36924;DHT22;22841;50.252;18.688;2023-05-29T15:40:30;22.80;1.00
36924;DHT22;22841;50.252;18.688;2023-05-29T15:42:57;22.80;1.00
36924;DHT22;22841;50.252;18.688;2023-05-29T15:45:23;22.80;1.00
36924;DHT22;22841;50.252;18.688;2023-05-29T15:47:49;22.80;1.00
36924;DHT22;22841;50.252;18.688;2023-05-29T15:50:16;22.70;1.00
36924;DHT22;22841;50.252;18.688;2023-05-29T15:52:42;22.60;1.00
36924;DHT22;22841;50.252;18.688;2023-05-29T15:55:08;22.60;1.00